sensor_id;sensor_type;location;lat;lon;timestamp;P1;durP1;ratioP1;P2;durP2;ratioP2
74553;SDS011;63114;59.956;30.214;2022-10-23T00:00:19;4.90;;;2.10;;
74553;SDS011;63114;59.956;30.214;2022-10-23T00:02:50;5.65;;;1.80;;
74553;SDS011;63114;59.956;30.214;2022-10-23T00:05:16;4.22;;;1.90;;
74553;SDS011;63114;59.956;30.214;2022-10-23T00:07:42;4.32;;;2.03;;
74553;SDS011;63114;59.956;30.214;2022-10-23T00:10:08;4.18;;;2.25;;
74553;SDS011;63114;59.956;30.214;2022-10-23T00:12:34;6.40;;;2.08;;
74553;SDS011;63114;59.956;30.214;2022-10-23T00:15:00;5.40;;;1.98;;
74553;SDS011;63114;59.956;30.214;2022-10-23T00:17:26;3.15;;;1.90;;
74553;SDS011;63114;59.956;30.214;2022-10-23T00:19:52;3.78;;;2.03;;
74553;SDS011;63114;59.956;30.214;2022-10-23T00:22:17;5.60;;;2.13;;
74553;SDS011;63114;59.956;30.214;2022-10-23T00:24:43;6.35;;;2.22;;
74553;SDS011;63114;59.956;30.214;2022-10-23T00:27:09;3.20;;;1.85;;
74553;SDS011;63114;59.956;30.214;2022-10-23T00:29:34;4.90;;;2.15;;
74553;SDS011;63114;59.956;30.214;2022-10-23T00:32:00;4.97;;;2.72;;
74553;SDS011;63114;59.956;30.214;2022-10-23T00:34:26;4.90;;;2.05;;
74553;SDS011;63114;59.956;30.214;2022-10-23T00:36:52;3.30;;;1.95;;
74553;SDS011;63114;59.956;30.214;2022-10-23T00:39:17;5.18;;;1.88;;
74553;SDS011;63114;59.956;30.214;2022-10-23T00:41:43;6.07;;;2.67;;
74553;SDS011;63114;59.956;30.214;2022-10-23T00:45:03;6.75;;;1.98;;
74553;SDS011;63114;59.956;30.214;2022-10-23T00:46:55;5.15;;;2.20;;
74553;SDS011;63114;59.956;30.214;2022-10-23T00:49:21;4.72;;;2.35;;
74553;SDS011;63114;59.956;30.214;2022-10-23T00:51:51;5.07;;;2.00;;
74553;SDS011;63114;59.956;30.214;2022-10-23T00:54:20;4.80;;;2.38;;
74553;SDS011;63114;59.956;30.214;2022-10-23T00:56:47;4.38;;;2.22;;
74553;SDS011;63114;59.956;30.214;2022-10-23T00:59:14;4.10;;;2.05;;
74553;SDS011;63114;59.956;30.214;2022-10-23T01:01:40;4.30;;;2.58;;
74553;SDS011;63114;59.956;30.214;2022-10-23T01:04:06;4.35;;;2.15;;
74553;SDS011;63114;59.956;30.214;2022-10-23T01:06:37;4.50;;;2.55;;
74553;SDS011;63114;59.956;30.214;2022-10-23T01:14:49;4.88;;;2.05;;
74553;SDS011;63114;59.956;30.214;2022-10-23T01:17:40;4.03;;;2.50;;
74553;SDS011;63114;59.956;30.214;2022-10-23T01:27:47;3.53;;;1.98;;
74553;SDS011;63114;59.956;30.214;2022-10-23T01:30:17;4.50;;;2.10;;
74553;SDS011;63114;59.956;30.214;2022-10-23T01:38:15;4.50;;;2.40;;
74553;SDS011;63114;59.956;30.214;2022-10-23T01:43:42;4.40;;;2.45;;
74553;SDS011;63114;59.956;30.214;2022-10-23T01:46:14;5.05;;;1.90;;
74553;SDS011;63114;59.956;30.214;2022-10-23T01:48:41;6.22;;;2.60;;
74553;SDS011;63114;59.956;30.214;2022-10-23T01:51:12;6.38;;;2.38;;
74553;SDS011;63114;59.956;30.214;2022-10-23T01:53:40;3.20;;;1.90;;
74553;SDS011;63114;59.956;30.214;2022-10-23T01:56:10;4.43;;;2.25;;
74553;SDS011;63114;59.956;30.214;2022-10-23T01:58:38;4.78;;;2.58;;
74553;SDS011;63114;59.956;30.214;2022-10-23T02:01:04;7.30;;;2.50;;
74553;SDS011;63114;59.956;30.214;2022-10-23T02:03:37;5.13;;;2.45;;
74553;SDS011;63114;59.956;30.214;2022-10-23T02:06:04;5.07;;;3.00;;
74553;SDS011;63114;59.956;30.214;2022-10-23T02:08:30;4.40;;;2.50;;
74553;SDS011;63114;59.956;30.214;2022-10-23T02:11:29;4.72;;;2.22;;
74553;SDS011;63114;59.956;30.214;2022-10-23T02:17:04;7.10;;;2.45;;
74553;SDS011;63114;59.956;30.214;2022-10-23T02:19:42;3.40;;;2.17;;
74553;SDS011;63114;59.956;30.214;2022-10-23T02:22:34;6.00;;;2.15;;
74553;SDS011;63114;59.956;30.214;2022-10-23T02:27:38;3.83;;;2.33;;
74553;SDS011;63114;59.956;30.214;2022-10-23T02:30:10;4.18;;;2.20;;
74553;SDS011;63114;59.956;30.214;2022-10-23T02:32:39;5.38;;;2.50;;
74553;SDS011;63114;59.956;30.214;2022-10-23T02:35:09;6.43;;;2.55;;
74553;SDS011;63114;59.956;30.214;2022-10-23T02:37:35;5.00;;;2.58;;
74553;SDS011;63114;59.956;30.214;2022-10-23T02:40:02;5.10;;;2.45;;
74553;SDS011;63114;59.956;30.214;2022-10-23T02:42:51;6.07;;;2.97;;
74553;SDS011;63114;59.956;30.214;2022-10-23T02:53:34;5.68;;;2.65;;
74553;SDS011;63114;59.956;30.214;2022-10-23T02:58:40;6.38;;;2.83;;
74553;SDS011;63114;59.956;30.214;2022-10-23T03:01:11;7.13;;;2.92;;
74553;SDS011;63114;59.956;30.214;2022-10-23T03:03:49;6.18;;;2.60;;
74553;SDS011;63114;59.956;30.214;2022-10-23T03:06:17;5.35;;;2.45;;
74553;SDS011;63114;59.956;30.214;2022-10-23T03:08:47;3.50;;;2.00;;
74553;SDS011;63114;59.956;30.214;2022-10-23T03:11:24;4.75;;;2.60;;
74553;SDS011;63114;59.956;30.214;2022-10-23T03:13:50;8.07;;;3.00;;
74553;SDS011;63114;59.956;30.214;2022-10-23T03:16:15;4.90;;;2.50;;
74553;SDS011;63114;59.956;30.214;2022-10-23T03:18:47;5.38;;;2.33;;
74553;SDS011;63114;59.956;30.214;2022-10-23T03:21:13;6.20;;;2.60;;
74553;SDS011;63114;59.956;30.214;2022-10-23T03:23:39;5.40;;;2.80;;
74553;SDS011;63114;59.956;30.214;2022-10-23T03:26:04;6.32;;;2.65;;
74553;SDS011;63114;59.956;30.214;2022-10-23T03:28:38;6.25;;;2.40;;
74553;SDS011;63114;59.956;30.214;2022-10-23T03:31:04;4.22;;;2.70;;
74553;SDS011;63114;59.956;30.214;2022-10-23T03:33:30;5.25;;;2.63;;
74553;SDS011;63114;59.956;30.214;2022-10-23T03:36:04;4.97;;;2.33;;
74553;SDS011;63114;59.956;30.214;2022-10-23T03:38:31;6.93;;;2.58;;
74553;SDS011;63114;59.956;30.214;2022-10-23T03:40:56;4.32;;;2.40;;
74553;SDS011;63114;59.956;30.214;2022-10-23T03:43:22;4.13;;;2.78;;
74553;SDS011;63114;59.956;30.214;2022-10-23T03:45:48;4.78;;;2.42;;
74553;SDS011;63114;59.956;30.214;2022-10-23T03:48:15;5.50;;;2.40;;
74553;SDS011;63114;59.956;30.214;2022-10-23T03:50:42;4.55;;;2.50;;
74553;SDS011;63114;59.956;30.214;2022-10-23T03:53:09;6.28;;;2.42;;
74553;SDS011;63114;59.956;30.214;2022-10-23T03:55:35;6.28;;;2.65;;
74553;SDS011;63114;59.956;30.214;2022-10-23T03:58:00;5.47;;;2.78;;
74553;SDS011;63114;59.956;30.214;2022-10-23T04:00:26;7.18;;;2.60;;
74553;SDS011;63114;59.956;30.214;2022-10-23T04:02:52;4.72;;;2.40;;
74553;SDS011;63114;59.956;30.214;2022-10-23T04:05:18;6.45;;;2.85;;
74553;SDS011;63114;59.956;30.214;2022-10-23T04:07:52;4.93;;;2.80;;
74553;SDS011;63114;59.956;30.214;2022-10-23T04:10:18;4.85;;;2.60;;
74553;SDS011;63114;59.956;30.214;2022-10-23T04:12:43;5.20;;;2.80;;
74553;SDS011;63114;59.956;30.214;2022-10-23T04:15:10;3.85;;;2.40;;
74553;SDS011;63114;59.956;30.214;2022-10-23T04:17:36;5.28;;;2.80;;
74553;SDS011;63114;59.956;30.214;2022-10-23T04:20:03;5.63;;;2.90;;
74553;SDS011;63114;59.956;30.214;2022-10-23T04:22:28;5.32;;;2.70;;
74553;SDS011;63114;59.956;30.214;2022-10-23T04:24:54;5.50;;;2.88;;
74553;SDS011;63114;59.956;30.214;2022-10-23T04:27:20;5.47;;;2.72;;
74553;SDS011;63114;59.956;30.214;2022-10-23T04:29:46;4.18;;;2.50;;
74553;SDS011;63114;59.956;30.214;2022-10-23T04:32:13;4.93;;;2.65;;
74553;SDS011;63114;59.956;30.214;2022-10-23T04:34:42;4.70;;;2.47;;
74553;SDS011;63114;59.956;30.214;2022-10-23T04:37:07;6.85;;;3.08;;
74553;SDS011;63114;59.956;30.214;2022-10-23T04:39:33;6.82;;;2.63;;
74553;SDS011;63114;59.956;30.214;2022-10-23T04:41:59;7.57;;;2.78;;
74553;SDS011;63114;59.956;30.214;2022-10-23T04:44:24;5.13;;;3.05;;
74553;SDS011;63114;59.956;30.214;2022-10-23T04:46:50;7.03;;;3.10;;
74553;SDS011;63114;59.956;30.214;2022-10-23T04:49:16;6.25;;;2.78;;
74553;SDS011;63114;59.956;30.214;2022-10-23T04:51:44;5.32;;;3.45;;
74553;SDS011;63114;59.956;30.214;2022-10-23T04:54:36;5.68;;;2.60;;
74553;SDS011;63114;59.956;30.214;2022-10-23T04:57:20;8.02;;;2.85;;
74553;SDS011;63114;59.956;30.214;2022-10-23T05:00:07;6.07;;;2.60;;
74553;SDS011;63114;59.956;30.214;2022-10-23T05:02:41;5.45;;;2.50;;
74553;SDS011;63114;59.956;30.214;2022-10-23T05:05:08;5.13;;;2.42;;
74553;SDS011;63114;59.956;30.214;2022-10-23T05:07:34;6.00;;;2.63;;
74553;SDS011;63114;59.956;30.214;2022-10-23T05:10:22;5.82;;;2.80;;
74553;SDS011;63114;59.956;30.214;2022-10-23T05:12:59;4.53;;;2.72;;
74553;SDS011;63114;59.956;30.214;2022-10-23T05:15:25;6.65;;;3.10;;
74553;SDS011;63114;59.956;30.214;2022-10-23T05:17:51;5.10;;;3.05;;
74553;SDS011;63114;59.956;30.214;2022-10-23T05:20:20;5.63;;;2.83;;
74553;SDS011;63114;59.956;30.214;2022-10-23T05:22:48;7.82;;;2.92;;
74553;SDS011;63114;59.956;30.214;2022-10-23T05:25:18;7.10;;;3.08;;
74553;SDS011;63114;59.956;30.214;2022-10-23T05:27:49;10.05;;;3.30;;
74553;SDS011;63114;59.956;30.214;2022-10-23T05:30:15;4.68;;;2.78;;
74553;SDS011;63114;59.956;30.214;2022-10-23T05:32:41;7.47;;;3.15;;
74553;SDS011;63114;59.956;30.214;2022-10-23T05:35:08;5.38;;;3.22;;
74553;SDS011;63114;59.956;30.214;2022-10-23T05:37:37;7.70;;;3.58;;
74553;SDS011;63114;59.956;30.214;2022-10-23T05:40:09;6.15;;;3.28;;
74553;SDS011;63114;59.956;30.214;2022-10-23T05:42:37;4.95;;;3.08;;
74553;SDS011;63114;59.956;30.214;2022-10-23T05:45:03;6.90;;;3.20;;
74553;SDS011;63114;59.956;30.214;2022-10-23T05:47:47;6.43;;;3.20;;
74553;SDS011;63114;59.956;30.214;2022-10-23T05:50:26;4.93;;;3.20;;
74553;SDS011;63114;59.956;30.214;2022-10-23T05:53:15;5.93;;;3.20;;
74553;SDS011;63114;59.956;30.214;2022-10-23T05:56:05;7.47;;;3.00;;
74553;SDS011;63114;59.956;30.214;2022-10-23T05:58:51;6.88;;;3.10;;
74553;SDS011;63114;59.956;30.214;2022-10-23T06:01:40;7.88;;;2.92;;
74553;SDS011;63114;59.956;30.214;2022-10-23T06:04:06;6.07;;;3.22;;
74553;SDS011;63114;59.956;30.214;2022-10-23T06:06:51;5.53;;;2.90;;
74553;SDS011;63114;59.956;30.214;2022-10-23T06:09:17;5.55;;;2.80;;
74553;SDS011;63114;59.956;30.214;2022-10-23T06:11:44;7.05;;;3.35;;
74553;SDS011;63114;59.956;30.214;2022-10-23T06:14:16;4.88;;;2.97;;
74553;SDS011;63114;59.956;30.214;2022-10-23T06:16:41;9.10;;;4.43;;
74553;SDS011;63114;59.956;30.214;2022-10-23T06:19:10;6.78;;;3.70;;
74553;SDS011;63114;59.956;30.214;2022-10-23T06:21:37;8.00;;;2.70;;
74553;SDS011;63114;59.956;30.214;2022-10-23T06:24:07;9.52;;;3.50;;
74553;SDS011;63114;59.956;30.214;2022-10-23T06:26:59;5.80;;;3.50;;
74553;SDS011;63114;59.956;30.214;2022-10-23T06:29:39;7.78;;;3.70;;
74553;SDS011;63114;59.956;30.214;2022-10-23T06:32:05;5.25;;;3.30;;
74553;SDS011;63114;59.956;30.214;2022-10-23T06:34:31;7.30;;;3.97;;
74553;SDS011;63114;59.956;30.214;2022-10-23T06:36:57;5.32;;;3.20;;
74553;SDS011;63114;59.956;30.214;2022-10-23T06:39:41;8.15;;;3.42;;
74553;SDS011;63114;59.956;30.214;2022-10-23T06:42:20;7.80;;;3.40;;
74553;SDS011;63114;59.956;30.214;2022-10-23T06:47:52;5.17;;;3.30;;
74553;SDS011;63114;59.956;30.214;2022-10-23T06:50:36;4.95;;;3.50;;
74553;SDS011;63114;59.956;30.214;2022-10-23T06:53:07;7.40;;;3.20;;
74553;SDS011;63114;59.956;30.214;2022-10-23T06:55:37;5.57;;;3.25;;
74553;SDS011;63114;59.956;30.214;2022-10-23T06:58:07;6.72;;;3.30;;
74553;SDS011;63114;59.956;30.214;2022-10-23T07:00:40;5.60;;;3.20;;
74553;SDS011;63114;59.956;30.214;2022-10-23T07:03:05;7.82;;;3.55;;
74553;SDS011;63114;59.956;30.214;2022-10-23T07:05:33;7.78;;;3.53;;
74553;SDS011;63114;59.956;30.214;2022-10-23T07:07:59;6.30;;;3.20;;
74553;SDS011;63114;59.956;30.214;2022-10-23T07:10:30;8.88;;;3.75;;
74553;SDS011;63114;59.956;30.214;2022-10-23T07:12:58;8.23;;;3.50;;
74553;SDS011;63114;59.956;30.214;2022-10-23T07:15:57;8.10;;;3.53;;
74553;SDS011;63114;59.956;30.214;2022-10-23T07:18:24;9.55;;;4.70;;
74553;SDS011;63114;59.956;30.214;2022-10-23T07:21:13;8.48;;;3.67;;
74553;SDS011;63114;59.956;30.214;2022-10-23T07:23:39;6.10;;;3.38;;
74553;SDS011;63114;59.956;30.214;2022-10-23T07:26:13;9.50;;;4.22;;
74553;SDS011;63114;59.956;30.214;2022-10-23T07:28:40;5.45;;;3.72;;
74553;SDS011;63114;59.956;30.214;2022-10-23T07:31:07;9.55;;;3.88;;
74553;SDS011;63114;59.956;30.214;2022-10-23T07:34:09;5.22;;;3.83;;
74553;SDS011;63114;59.956;30.214;2022-10-23T07:36:35;6.15;;;3.63;;
74553;SDS011;63114;59.956;30.214;2022-10-23T07:39:00;5.32;;;3.30;;
74553;SDS011;63114;59.956;30.214;2022-10-23T07:41:26;8.93;;;4.47;;
74553;SDS011;63114;59.956;30.214;2022-10-23T07:43:52;9.10;;;3.90;;
74553;SDS011;63114;59.956;30.214;2022-10-23T07:46:17;8.18;;;4.18;;
74553;SDS011;63114;59.956;30.214;2022-10-23T07:48:44;7.72;;;4.20;;
74553;SDS011;63114;59.956;30.214;2022-10-23T07:51:11;5.95;;;3.70;;
74553;SDS011;63114;59.956;30.214;2022-10-23T07:53:44;7.47;;;4.13;;
74553;SDS011;63114;59.956;30.214;2022-10-23T07:56:33;7.38;;;3.90;;
74553;SDS011;63114;59.956;30.214;2022-10-23T07:59:17;10.40;;;4.35;;
74553;SDS011;63114;59.956;30.214;2022-10-23T08:01:52;5.40;;;3.58;;
74553;SDS011;63114;59.956;30.214;2022-10-23T08:04:23;7.00;;;4.30;;
74553;SDS011;63114;59.956;30.214;2022-10-23T08:07:08;6.85;;;4.80;;
74553;SDS011;63114;59.956;30.214;2022-10-23T08:09:39;7.40;;;4.10;;
74553;SDS011;63114;59.956;30.214;2022-10-23T08:12:06;7.70;;;5.13;;
74553;SDS011;63114;59.956;30.214;2022-10-23T08:14:33;6.22;;;4.00;;
74553;SDS011;63114;59.956;30.214;2022-10-23T08:16:59;7.50;;;4.13;;
74553;SDS011;63114;59.956;30.214;2022-10-23T08:19:45;8.25;;;5.07;;
74553;SDS011;63114;59.956;30.214;2022-10-23T08:22:14;8.27;;;4.70;;
74553;SDS011;63114;59.956;30.214;2022-10-23T08:24:40;9.35;;;4.97;;
74553;SDS011;63114;59.956;30.214;2022-10-23T08:27:06;6.68;;;4.28;;
74553;SDS011;63114;59.956;30.214;2022-10-23T08:29:39;7.38;;;4.57;;
74553;SDS011;63114;59.956;30.214;2022-10-23T08:32:05;11.38;;;4.95;;
74553;SDS011;63114;59.956;30.214;2022-10-23T08:34:40;7.95;;;4.40;;
74553;SDS011;63114;59.956;30.214;2022-10-23T08:37:07;11.38;;;5.30;;
74553;SDS011;63114;59.956;30.214;2022-10-23T08:39:33;9.50;;;4.72;;
74553;SDS011;63114;59.956;30.214;2022-10-23T08:42:18;8.02;;;4.40;;
74553;SDS011;63114;59.956;30.214;2022-10-23T08:45:04;10.57;;;5.07;;
74553;SDS011;63114;59.956;30.214;2022-10-23T08:47:43;9.23;;;4.88;;
74553;SDS011;63114;59.956;30.214;2022-10-23T08:55:39;6.85;;;4.53;;
74553;SDS011;63114;59.956;30.214;2022-10-23T09:00:56;8.63;;;4.95;;
74553;SDS011;63114;59.956;30.214;2022-10-23T09:03:22;9.90;;;5.22;;
74553;SDS011;63114;59.956;30.214;2022-10-23T09:05:56;9.77;;;5.90;;
74553;SDS011;63114;59.956;30.214;2022-10-23T09:19:29;11.03;;;5.93;;
74553;SDS011;63114;59.956;30.214;2022-10-23T09:21:55;13.05;;;5.97;;
74553;SDS011;63114;59.956;30.214;2022-10-23T09:24:23;12.95;;;5.82;;
74553;SDS011;63114;59.956;30.214;2022-10-23T09:26:50;8.73;;;5.05;;
74553;SDS011;63114;59.956;30.214;2022-10-23T09:29:22;9.90;;;5.80;;
74553;SDS011;63114;59.956;30.214;2022-10-23T09:31:51;10.70;;;6.65;;
74553;SDS011;63114;59.956;30.214;2022-10-23T09:34:20;10.02;;;6.60;;
74553;SDS011;63114;59.956;30.214;2022-10-23T09:36:49;10.98;;;6.55;;
74553;SDS011;63114;59.956;30.214;2022-10-23T09:39:21;10.90;;;6.70;;
74553;SDS011;63114;59.956;30.214;2022-10-23T09:41:48;14.90;;;6.43;;
74553;SDS011;63114;59.956;30.214;2022-10-23T09:46:48;11.43;;;6.82;;
74553;SDS011;63114;59.956;30.214;2022-10-23T09:49:20;11.68;;;7.57;;
74553;SDS011;63114;59.956;30.214;2022-10-23T09:52:33;13.23;;;7.93;;
74553;SDS011;63114;59.956;30.214;2022-10-23T09:57:05;11.95;;;8.23;;
74553;SDS011;63114;59.956;30.214;2022-10-23T09:59:42;16.85;;;9.38;;
74553;SDS011;63114;59.956;30.214;2022-10-23T10:02:17;12.73;;;8.90;;
74553;SDS011;63114;59.956;30.214;2022-10-23T10:05:21;18.65;;;10.32;;
74553;SDS011;63114;59.956;30.214;2022-10-23T10:10:48;15.25;;;9.38;;
74553;SDS011;63114;59.956;30.214;2022-10-23T10:18:36;16.30;;;10.38;;
74553;SDS011;63114;59.956;30.214;2022-10-23T10:24:16;16.30;;;10.13;;
74553;SDS011;63114;59.956;30.214;2022-10-23T10:35:15;16.50;;;10.90;;
74553;SDS011;63114;59.956;30.214;2022-10-23T10:44:03;19.08;;;11.35;;
74553;SDS011;63114;59.956;30.214;2022-10-23T10:47:10;18.17;;;11.75;;
74553;SDS011;63114;59.956;30.214;2022-10-23T10:50:28;19.80;;;11.60;;
74553;SDS011;63114;59.956;30.214;2022-10-23T10:56:07;21.00;;;13.63;;
74553;SDS011;63114;59.956;30.214;2022-10-23T10:58:46;19.20;;;12.55;;
74553;SDS011;63114;59.956;30.214;2022-10-23T11:06:47;24.02;;;14.32;;
74553;SDS011;63114;59.956;30.214;2022-10-23T11:09:19;19.65;;;13.63;;
74553;SDS011;63114;59.956;30.214;2022-10-23T11:11:47;24.95;;;13.68;;
74553;SDS011;63114;59.956;30.214;2022-10-23T11:14:14;24.52;;;14.18;;
74553;SDS011;63114;59.956;30.214;2022-10-23T11:16:41;21.75;;;14.43;;
74553;SDS011;63114;59.956;30.214;2022-10-23T11:22:01;23.05;;;14.68;;
74553;SDS011;63114;59.956;30.214;2022-10-23T11:30:09;21.80;;;13.88;;
74553;SDS011;63114;59.956;30.214;2022-10-23T11:37:56;23.13;;;15.57;;
74553;SDS011;63114;59.956;30.214;2022-10-23T11:40:23;23.52;;;14.77;;
74553;SDS011;63114;59.956;30.214;2022-10-23T11:42:49;22.90;;;15.18;;
74553;SDS011;63114;59.956;30.214;2022-10-23T11:47:56;25.70;;;16.10;;
74553;SDS011;63114;59.956;30.214;2022-10-23T11:50:23;23.73;;;16.23;;
74553;SDS011;63114;59.956;30.214;2022-10-23T11:58:45;25.27;;;16.20;;
74553;SDS011;63114;59.956;30.214;2022-10-23T12:06:52;19.70;;;13.48;;
74553;SDS011;63114;59.956;30.214;2022-10-23T12:14:37;23.85;;;15.63;;
74553;SDS011;63114;59.956;30.214;2022-10-23T12:20:34;24.52;;;15.48;;
74553;SDS011;63114;59.956;30.214;2022-10-23T12:28:02;22.02;;;14.13;;
74553;SDS011;63114;59.956;30.214;2022-10-23T12:36:05;22.35;;;15.02;;
74553;SDS011;63114;59.956;30.214;2022-10-23T12:38:41;19.52;;;13.45;;
74553;SDS011;63114;59.956;30.214;2022-10-23T12:41:15;19.90;;;13.25;;
74553;SDS011;63114;59.956;30.214;2022-10-23T12:43:56;18.65;;;13.70;;
74553;SDS011;63114;59.956;30.214;2022-10-23T12:46:33;20.00;;;13.57;;
74553;SDS011;63114;59.956;30.214;2022-10-23T12:49:03;22.38;;;13.40;;
74553;SDS011;63114;59.956;30.214;2022-10-23T12:51:35;17.25;;;11.90;;
74553;SDS011;63114;59.956;30.214;2022-10-23T12:54:01;26.10;;;20.23;;
74553;SDS011;63114;59.956;30.214;2022-10-23T12:56:32;17.80;;;12.82;;
74553;SDS011;63114;59.956;30.214;2022-10-23T12:58:59;18.67;;;12.68;;
74553;SDS011;63114;59.956;30.214;2022-10-23T13:01:26;16.42;;;10.85;;
74553;SDS011;63114;59.956;30.214;2022-10-23T13:06:35;12.88;;;9.75;;
74553;SDS011;63114;59.956;30.214;2022-10-23T13:09:01;16.17;;;9.65;;
74553;SDS011;63114;59.956;30.214;2022-10-23T13:11:57;11.45;;;8.35;;
74553;SDS011;63114;59.956;30.214;2022-10-23T13:14:28;11.32;;;9.10;;
74553;SDS011;63114;59.956;30.214;2022-10-23T13:17:01;14.05;;;9.88;;
74553;SDS011;63114;59.956;30.214;2022-10-23T13:19:29;10.75;;;8.82;;
74553;SDS011;63114;59.956;30.214;2022-10-23T13:21:55;13.52;;;8.85;;
74553;SDS011;63114;59.956;30.214;2022-10-23T13:24:21;11.55;;;8.25;;
74553;SDS011;63114;59.956;30.214;2022-10-23T13:26:50;15.73;;;9.80;;
74553;SDS011;63114;59.956;30.214;2022-10-23T13:31:44;13.60;;;9.82;;
74553;SDS011;63114;59.956;30.214;2022-10-23T13:34:15;14.23;;;9.13;;
74553;SDS011;63114;59.956;30.214;2022-10-23T13:36:53;17.92;;;10.88;;
74553;SDS011;63114;59.956;30.214;2022-10-23T13:39:30;14.48;;;9.10;;
74553;SDS011;63114;59.956;30.214;2022-10-23T13:42:14;13.82;;;9.65;;
74553;SDS011;63114;59.956;30.214;2022-10-23T13:44:40;16.63;;;10.35;;
74553;SDS011;63114;59.956;30.214;2022-10-23T13:47:10;18.27;;;10.52;;
74553;SDS011;63114;59.956;30.214;2022-10-23T13:49:41;18.42;;;10.10;;
74553;SDS011;63114;59.956;30.214;2022-10-23T13:52:08;14.73;;;9.85;;
74553;SDS011;63114;59.956;30.214;2022-10-23T13:54:35;12.80;;;9.00;;
74553;SDS011;63114;59.956;30.214;2022-10-23T13:57:01;12.18;;;7.97;;
74553;SDS011;63114;59.956;30.214;2022-10-23T13:59:27;13.68;;;9.50;;
74553;SDS011;63114;59.956;30.214;2022-10-23T14:01:52;12.88;;;9.43;;
74553;SDS011;63114;59.956;30.214;2022-10-23T14:04:18;14.13;;;9.85;;
74553;SDS011;63114;59.956;30.214;2022-10-23T14:06:45;12.40;;;9.35;;
74553;SDS011;63114;59.956;30.214;2022-10-23T14:09:11;14.95;;;9.75;;
74553;SDS011;63114;59.956;30.214;2022-10-23T14:11:39;13.65;;;9.00;;
74553;SDS011;63114;59.956;30.214;2022-10-23T14:14:05;17.20;;;10.45;;
74553;SDS011;63114;59.956;30.214;2022-10-23T14:16:31;14.77;;;9.90;;
74553;SDS011;63114;59.956;30.214;2022-10-23T14:18:57;12.32;;;9.63;;
74553;SDS011;63114;59.956;30.214;2022-10-23T14:21:23;13.77;;;8.85;;
74553;SDS011;63114;59.956;30.214;2022-10-23T14:23:50;11.77;;;8.35;;
74553;SDS011;63114;59.956;30.214;2022-10-23T14:26:18;12.73;;;8.75;;
74553;SDS011;63114;59.956;30.214;2022-10-23T14:28:46;12.25;;;7.82;;
74553;SDS011;63114;59.956;30.214;2022-10-23T14:31:13;11.73;;;7.10;;
74553;SDS011;63114;59.956;30.214;2022-10-23T14:33:41;9.18;;;6.68;;
74553;SDS011;63114;59.956;30.214;2022-10-23T14:36:07;10.00;;;7.03;;
74553;SDS011;63114;59.956;30.214;2022-10-23T14:38:33;9.85;;;7.32;;
74553;SDS011;63114;59.956;30.214;2022-10-23T14:41:00;9.55;;;6.68;;
74553;SDS011;63114;59.956;30.214;2022-10-23T14:43:26;9.55;;;6.40;;
74553;SDS011;63114;59.956;30.214;2022-10-23T14:45:52;8.25;;;5.13;;
74553;SDS011;63114;59.956;30.214;2022-10-23T14:48:18;8.40;;;4.80;;
74553;SDS011;63114;59.956;30.214;2022-10-23T14:50:47;8.27;;;4.60;;
74553;SDS011;63114;59.956;30.214;2022-10-23T14:53:13;7.88;;;4.88;;
74553;SDS011;63114;59.956;30.214;2022-10-23T14:55:39;9.13;;;4.90;;
74553;SDS011;63114;59.956;30.214;2022-10-23T14:58:05;8.73;;;4.60;;
74553;SDS011;63114;59.956;30.214;2022-10-23T15:00:31;9.35;;;5.25;;
74553;SDS011;63114;59.956;30.214;2022-10-23T15:02:57;7.20;;;4.93;;
74553;SDS011;63114;59.956;30.214;2022-10-23T15:05:22;6.43;;;4.22;;
74553;SDS011;63114;59.956;30.214;2022-10-23T15:07:48;7.18;;;3.60;;
74553;SDS011;63114;59.956;30.214;2022-10-23T15:10:14;6.53;;;4.03;;
74553;SDS011;63114;59.956;30.214;2022-10-23T15:12:39;5.93;;;3.63;;
74553;SDS011;63114;59.956;30.214;2022-10-23T15:15:06;5.88;;;4.32;;
74553;SDS011;63114;59.956;30.214;2022-10-23T15:17:32;6.68;;;4.65;;
74553;SDS011;63114;59.956;30.214;2022-10-23T15:19:58;6.43;;;3.75;;
74553;SDS011;63114;59.956;30.214;2022-10-23T15:22:25;6.05;;;3.83;;
74553;SDS011;63114;59.956;30.214;2022-10-23T15:24:52;5.50;;;3.50;;
74553;SDS011;63114;59.956;30.214;2022-10-23T15:27:17;7.85;;;3.90;;
74553;SDS011;63114;59.956;30.214;2022-10-23T15:29:43;6.45;;;3.90;;
74553;SDS011;63114;59.956;30.214;2022-10-23T15:32:10;5.43;;;3.35;;
74553;SDS011;63114;59.956;30.214;2022-10-23T15:34:36;4.72;;;3.30;;
74553;SDS011;63114;59.956;30.214;2022-10-23T15:37:03;8.77;;;3.33;;
74553;SDS011;63114;59.956;30.214;2022-10-23T15:39:30;6.10;;;3.42;;
74553;SDS011;63114;59.956;30.214;2022-10-23T15:42:00;3.97;;;2.63;;
74553;SDS011;63114;59.956;30.214;2022-10-23T15:44:28;16.92;;;9.73;;
74553;SDS011;63114;59.956;30.214;2022-10-23T15:46:55;4.53;;;3.38;;
74553;SDS011;63114;59.956;30.214;2022-10-23T15:49:24;5.70;;;3.60;;
74553;SDS011;63114;59.956;30.214;2022-10-23T15:51:51;4.40;;;3.10;;
74553;SDS011;63114;59.956;30.214;2022-10-23T15:54:17;7.13;;;3.53;;
74553;SDS011;63114;59.956;30.214;2022-10-23T15:56:44;5.50;;;3.47;;
74553;SDS011;63114;59.956;30.214;2022-10-23T15:59:11;6.55;;;3.67;;
74553;SDS011;63114;59.956;30.214;2022-10-23T16:01:37;6.30;;;3.60;;
74553;SDS011;63114;59.956;30.214;2022-10-23T16:04:03;6.38;;;3.55;;
74553;SDS011;63114;59.956;30.214;2022-10-23T16:06:28;5.05;;;3.20;;
74553;SDS011;63114;59.956;30.214;2022-10-23T16:08:54;5.60;;;3.50;;
74553;SDS011;63114;59.956;30.214;2022-10-23T16:11:21;5.70;;;3.22;;
74553;SDS011;63114;59.956;30.214;2022-10-23T16:13:50;6.22;;;3.33;;
74553;SDS011;63114;59.956;30.214;2022-10-23T16:16:16;5.78;;;2.80;;
74553;SDS011;63114;59.956;30.214;2022-10-23T16:18:42;5.22;;;2.90;;
74553;SDS011;63114;59.956;30.214;2022-10-23T16:21:14;4.85;;;2.90;;
74553;SDS011;63114;59.956;30.214;2022-10-23T16:23:42;6.07;;;3.25;;
74553;SDS011;63114;59.956;30.214;2022-10-23T16:26:07;5.72;;;2.97;;
74553;SDS011;63114;59.956;30.214;2022-10-23T16:28:33;4.53;;;2.70;;
74553;SDS011;63114;59.956;30.214;2022-10-23T16:30:59;4.88;;;2.95;;
74553;SDS011;63114;59.956;30.214;2022-10-23T16:33:25;8.60;;;2.97;;
74553;SDS011;63114;59.956;30.214;2022-10-23T16:35:51;4.97;;;3.15;;
74553;SDS011;63114;59.956;30.214;2022-10-23T16:38:20;6.28;;;3.13;;
74553;SDS011;63114;59.956;30.214;2022-10-23T16:40:52;5.40;;;2.90;;
74553;SDS011;63114;59.956;30.214;2022-10-23T16:43:43;4.50;;;3.20;;
74553;SDS011;63114;59.956;30.214;2022-10-23T16:46:22;7.57;;;3.10;;
74553;SDS011;63114;59.956;30.214;2022-10-23T16:48:49;6.60;;;3.38;;
74553;SDS011;63114;59.956;30.214;2022-10-23T16:51:17;5.35;;;2.85;;
74553;SDS011;63114;59.956;30.214;2022-10-23T16:53:48;4.93;;;3.05;;
74553;SDS011;63114;59.956;30.214;2022-10-23T16:56:15;5.65;;;2.90;;
74553;SDS011;63114;59.956;30.214;2022-10-23T16:58:43;6.05;;;2.80;;
74553;SDS011;63114;59.956;30.214;2022-10-23T17:01:10;5.28;;;3.13;;
74553;SDS011;63114;59.956;30.214;2022-10-23T17:03:43;5.97;;;3.05;;
74553;SDS011;63114;59.956;30.214;2022-10-23T17:06:13;7.80;;;3.10;;
74553;SDS011;63114;59.956;30.214;2022-10-23T17:08:40;5.25;;;2.88;;
74553;SDS011;63114;59.956;30.214;2022-10-23T17:11:08;3.97;;;2.60;;
74553;SDS011;63114;59.956;30.214;2022-10-23T17:13:39;5.40;;;2.45;;
74553;SDS011;63114;59.956;30.214;2022-10-23T17:16:10;5.03;;;2.42;;
74553;SDS011;63114;59.956;30.214;2022-10-23T17:18:40;5.15;;;2.90;;